Terminal Aerodrome Forecast
Issued by NWS Sterling, VA

Current Version | Previous Version | Graphics & Text | Print | Product List | Glossary On
Versions: 1 2 3 4 5 6 7 8 9 10 11 12 13 14 15 16 17 18 19 20 21 22 23 24 25 26 27 28 29
000
FTUS41 KLWX 240859 AAB
TAFIAD
TAF AMD
KIAD 240859Z 2409/2512 VRB03KT 1/4SM FG OVC002
     FM241400 VRB03KT 2SM BR OVC008
     FM241800 07005KT 5SM -SHRA BR OVC008
     FM250300 08006KT 2SM -SHRADZ BR OVC003
     FM250900 12006KT 2SM -SHRADZ BR OVC003=

USA.gov is the U.S. government's official web portal to all federal, state and local government web resources and services.